createdAt,value
2022-12-05T00:02:10.185Z,0.70
2022-12-05T00:04:38.875Z,0.93
2022-12-05T00:07:07.368Z,0.90
2022-12-05T00:09:36.077Z,0.73
2022-12-05T00:12:04.612Z,0.90
2022-12-05T00:14:33.143Z,0.83
2022-12-05T00:17:01.899Z,0.50
2022-12-05T00:19:31.804Z,0.70
2022-12-05T00:22:00.402Z,0.70
2022-12-05T00:24:28.889Z,0.70
2022-12-05T00:26:57.335Z,0.67
2022-12-05T00:29:25.959Z,0.60
2022-12-05T00:31:54.654Z,0.63
2022-12-05T00:34:23.107Z,0.50
2022-12-05T00:36:52.926Z,0.63
2022-12-05T00:39:21.622Z,0.70
2022-12-05T00:41:50.136Z,0.40
2022-12-05T00:44:18.551Z,0.67
2022-12-05T00:46:47.276Z,0.60
2022-12-05T00:49:15.837Z,0.63
2022-12-05T00:51:45.128Z,0.70
2022-12-05T00:54:16.404Z,0.70
2022-12-05T00:56:45.295Z,0.70
2022-12-05T00:59:16.115Z,0.63
2022-12-05T01:01:45.780Z,0.57
2022-12-05T01:04:15.412Z,0.47
2022-12-05T01:06:44.232Z,0.60
2022-12-05T01:09:14.567Z,0.70
2022-12-05T01:11:44.681Z,0.70
2022-12-05T01:14:13.612Z,0.70
2022-12-05T01:16:42.958Z,0.60
2022-12-05T01:19:13.257Z,0.70
2022-12-05T01:21:41.711Z,0.47
2022-12-05T01:24:10.354Z,0.63
2022-12-05T01:26:39.332Z,0.70
2022-12-05T01:29:09.550Z,0.60
2022-12-05T01:31:39.414Z,0.70
2022-12-05T01:34:09.727Z,0.70
2022-12-05T01:36:39.421Z,0.60
2022-12-05T01:39:08.598Z,0.50
2022-12-05T01:41:38.129Z,0.60
2022-12-05T01:44:07.841Z,0.70
2022-12-05T01:46:38.655Z,0.63
2022-12-05T01:49:09.293Z,0.70
2022-12-05T01:51:40.256Z,0.80
2022-12-05T01:54:09.933Z,0.70
2022-12-05T01:56:38.872Z,0.90
2022-12-05T01:59:09.356Z,0.70
2022-12-05T02:01:39.926Z,1.03
2022-12-05T02:04:08.768Z,0.60
2022-12-05T02:06:37.213Z,0.67
2022-12-05T02:09:05.833Z,0.60
2022-12-05T02:11:35.332Z,0.50
2022-12-05T02:14:11.711Z,0.83
2022-12-05T02:16:47.411Z,0.80
2022-12-05T02:19:25.374Z,0.60
2022-12-05T02:22:11.716Z,0.40
2022-12-05T02:24:52.180Z,0.40
2022-12-05T02:27:29.132Z,0.70
2022-12-05T02:30:15.270Z,0.70
2022-12-05T02:32:53.692Z,0.67
2022-12-05T02:35:28.158Z,0.80
2022-12-05T02:38:01.209Z,0.90
2022-12-05T02:40:33.319Z,0.70
2022-12-05T02:43:02.921Z,0.60
2022-12-05T02:45:33.677Z,0.77
2022-12-05T02:48:03.927Z,0.70
2022-12-05T02:50:34.790Z,0.70
2022-12-05T02:53:06.052Z,0.80
2022-12-05T02:55:35.549Z,0.80
2022-12-05T02:58:06.433Z,0.70
2022-12-05T03:00:36.816Z,0.70
2022-12-05T03:03:14.535Z,0.77
2022-12-05T03:05:45.161Z,0.60
2022-12-05T03:08:17.597Z,0.60
2022-12-05T03:10:47.057Z,0.73
2022-12-05T03:13:18.013Z,0.70
2022-12-05T03:15:48.962Z,0.70
2022-12-05T03:18:22.519Z,0.77
2022-12-05T03:20:53.736Z,0.70
2022-12-05T03:23:24.103Z,0.77
2022-12-05T03:25:54.072Z,0.70
2022-12-05T03:28:26.135Z,0.70
2022-12-05T03:30:55.595Z,0.70
2022-12-05T03:33:27.935Z,0.80
2022-12-05T03:36:00.343Z,0.70
2022-12-05T03:38:33.013Z,0.70
2022-12-05T03:41:07.018Z,0.50
2022-12-05T03:43:38.637Z,0.67
2022-12-05T03:46:08.592Z,0.70
2022-12-05T03:48:40.008Z,0.70
2022-12-05T03:51:09.429Z,0.73
2022-12-05T03:53:40.035Z,0.70
2022-12-05T03:56:09.879Z,0.63
2022-12-05T03:58:40.712Z,0.60
2022-12-05T04:01:10.578Z,0.63
2022-12-05T04:03:42.686Z,0.70
2022-12-05T04:06:16.685Z,0.60
2022-12-05T04:08:47.083Z,0.70
2022-12-05T04:11:17.796Z,0.50
2022-12-05T04:13:47.867Z,0.70
2022-12-05T04:16:37.030Z,0.60
2022-12-05T04:19:08.548Z,0.60
2022-12-05T04:21:38.815Z,0.70
2022-12-05T04:24:25.865Z,0.40
2022-12-05T04:26:58.495Z,0.70
2022-12-05T04:29:31.848Z,0.73
2022-12-05T04:32:01.521Z,0.50
2022-12-05T04:34:33.441Z,0.70
2022-12-05T04:37:04.542Z,0.80
2022-12-05T04:39:35.970Z,0.70
2022-12-05T04:42:07.213Z,0.80
2022-12-05T04:44:36.967Z,0.67
2022-12-05T04:47:06.715Z,0.60
2022-12-05T04:49:38.160Z,1.00
2022-12-05T04:52:09.841Z,0.80
2022-12-05T04:54:40.779Z,0.77
2022-12-05T04:57:12.368Z,0.70
2022-12-05T04:59:40.968Z,0.77
2022-12-05T05:02:10.336Z,0.80
2022-12-05T05:04:42.807Z,0.60
2022-12-05T05:07:12.326Z,0.60
2022-12-05T05:09:41.064Z,0.70
2022-12-05T05:12:12.152Z,0.80
2022-12-05T05:14:44.507Z,0.60
2022-12-05T05:17:12.932Z,0.60
2022-12-05T05:19:42.752Z,0.70
2022-12-05T05:22:11.541Z,0.60
2022-12-05T05:24:40.084Z,0.80
2022-12-05T05:27:08.507Z,0.73
2022-12-05T05:29:37.117Z,0.70
2022-12-05T05:32:05.693Z,0.60
2022-12-05T05:34:34.200Z,0.80
2022-12-05T05:37:04.217Z,0.70
2022-12-05T05:39:32.836Z,0.80
2022-12-05T05:42:01.284Z,0.80
2022-12-05T05:44:29.897Z,0.90
2022-12-05T05:46:58.533Z,0.90
2022-12-05T05:49:27.127Z,0.70
2022-12-05T05:51:55.656Z,0.50
2022-12-05T05:54:25.580Z,0.97
2022-12-05T05:56:54.000Z,0.40
2022-12-05T05:59:22.604Z,0.63
2022-12-05T06:01:51.202Z,0.60
2022-12-05T06:04:19.712Z,0.47
2022-12-05T06:06:48.273Z,0.50
2022-12-05T06:09:17.096Z,0.67
2022-12-05T06:11:47.088Z,0.67
2022-12-05T06:14:15.507Z,0.67
2022-12-05T06:16:44.110Z,0.40
2022-12-05T06:19:12.636Z,0.50
2022-12-05T06:21:41.131Z,0.40
2022-12-05T06:24:10.492Z,0.50
2022-12-05T06:26:39.141Z,0.40
2022-12-05T06:29:09.060Z,0.40
2022-12-05T06:31:37.678Z,0.40
2022-12-05T06:34:06.441Z,0.50
2022-12-05T06:36:34.980Z,0.43
2022-12-05T06:39:03.635Z,0.50
2022-12-05T06:41:33.678Z,0.60
2022-12-05T06:44:02.832Z,0.50
2022-12-05T06:46:33.037Z,0.60
2022-12-05T06:49:01.735Z,0.60
2022-12-05T06:51:30.236Z,0.50
2022-12-05T06:53:58.887Z,0.40
2022-12-05T06:56:27.422Z,0.53
2022-12-05T06:58:56.342Z,0.60
2022-12-05T07:01:41.184Z,0.60
2022-12-05T07:04:13.034Z,0.57
2022-12-05T07:06:46.171Z,0.57
2022-12-05T07:09:17.965Z,0.60
2022-12-05T07:11:49.411Z,0.80
2022-12-05T07:14:46.355Z,0.60
2022-12-05T07:17:07.220Z,0.80
2022-12-05T07:19:37.044Z,0.77
2022-12-05T07:22:08.337Z,0.80
2022-12-05T07:24:40.748Z,0.80
2022-12-05T07:27:09.257Z,0.90
2022-12-05T07:29:37.719Z,0.63
2022-12-05T07:32:06.521Z,0.60
2022-12-05T07:34:35.074Z,0.67
2022-12-05T07:37:04.921Z,0.80
2022-12-05T07:39:33.576Z,0.70
2022-12-05T07:42:02.011Z,0.80
2022-12-05T07:44:30.450Z,0.77
2022-12-05T07:46:59.368Z,0.70
2022-12-05T07:49:27.896Z,0.70
2022-12-05T07:51:56.328Z,0.90
2022-12-05T07:54:26.521Z,0.80
2022-12-05T07:56:54.950Z,0.90
2022-12-05T07:59:23.398Z,0.87
2022-12-05T08:01:52.232Z,0.77
2022-12-05T08:04:20.802Z,0.73
2022-12-05T08:06:49.228Z,0.80
2022-12-05T08:09:17.792Z,0.63
2022-12-05T08:11:52.371Z,1.00
2022-12-05T08:14:21.776Z,1.00
2022-12-05T08:16:50.418Z,1.03
2022-12-05T08:19:18.908Z,0.90
2022-12-05T08:21:47.774Z,1.17
2022-12-05T08:24:16.383Z,1.17
2022-12-05T08:26:44.844Z,1.07
2022-12-05T08:29:15.835Z,0.90
2022-12-05T08:31:47.194Z,0.80
2022-12-05T08:34:16.100Z,0.90
2022-12-05T08:36:45.039Z,0.80
2022-12-05T08:39:15.958Z,0.70
2022-12-05T08:41:44.645Z,0.73
2022-12-05T08:44:16.457Z,0.90
2022-12-05T08:46:47.325Z,0.90
2022-12-05T08:49:15.932Z,0.90
2022-12-05T08:51:44.907Z,0.70
2022-12-05T08:54:13.776Z,0.93
2022-12-05T08:56:42.249Z,1.10
2022-12-05T08:59:10.780Z,0.90
2022-12-05T09:01:40.607Z,1.07
2022-12-05T09:04:10.653Z,0.80
2022-12-05T09:06:39.464Z,0.93
2022-12-05T09:09:08.955Z,1.10
2022-12-05T09:11:41.004Z,0.87
2022-12-05T09:14:09.720Z,0.80
2022-12-05T09:16:39.417Z,0.67
2022-12-05T09:19:08.835Z,0.80
2022-12-05T09:21:38.649Z,0.80
2022-12-05T09:24:07.363Z,0.93
2022-12-05T09:26:36.081Z,0.80
2022-12-05T09:29:04.596Z,0.90
2022-12-05T09:31:33.221Z,0.77
2022-12-05T09:34:02.634Z,0.90
2022-12-05T09:36:32.029Z,0.80
2022-12-05T09:39:03.701Z,0.77
2022-12-05T09:41:58.489Z,0.97
2022-12-05T09:44:29.721Z,0.90
2022-12-05T09:47:01.560Z,0.80
2022-12-05T09:49:30.956Z,0.80
2022-12-05T09:52:00.084Z,1.30
2022-12-05T09:54:30.284Z,0.70
2022-12-05T09:56:59.655Z,0.90
2022-12-05T09:59:28.188Z,1.07
2022-12-05T10:02:00.217Z,0.73
2022-12-05T10:04:44.064Z,0.97
2022-12-05T10:07:15.596Z,0.87
2022-12-05T10:09:56.086Z,1.00
2022-12-05T10:12:32.441Z,0.67
2022-12-05T10:15:03.443Z,0.87
2022-12-05T10:17:34.372Z,0.90
2022-12-05T10:20:05.246Z,0.90
2022-12-05T10:22:38.683Z,1.00
2022-12-05T10:25:08.945Z,1.03
2022-12-05T10:27:40.550Z,0.80
2022-12-05T10:30:14.925Z,1.10
2022-12-05T10:32:53.666Z,1.20
2022-12-05T10:35:24.187Z,1.10
2022-12-05T10:37:54.332Z,1.30
2022-12-05T10:40:24.462Z,1.43
2022-12-05T10:42:54.503Z,1.47
2022-12-05T10:45:25.104Z,1.47
2022-12-05T10:47:56.413Z,1.20
2022-12-05T10:50:26.987Z,1.10
2022-12-05T10:52:56.052Z,1.30
2022-12-05T10:55:28.053Z,1.17
2022-12-05T10:58:16.866Z,1.50
2022-12-05T11:00:47.039Z,1.10
2022-12-05T11:03:27.896Z,1.10
2022-12-05T11:05:57.129Z,1.20
2022-12-05T11:08:48.272Z,1.30
2022-12-05T11:11:22.083Z,1.23
2022-12-05T11:13:54.598Z,1.37
2022-12-05T11:16:25.351Z,1.20
2022-12-05T11:18:53.989Z,1.20
2022-12-05T11:21:22.572Z,1.27
2022-12-05T11:23:51.260Z,1.57
2022-12-05T11:26:34.922Z,1.10
2022-12-05T11:29:04.664Z,1.40
2022-12-05T11:31:33.784Z,1.37
2022-12-05T11:34:03.850Z,1.50
2022-12-05T11:36:37.814Z,1.20
2022-12-05T11:39:06.385Z,1.37
2022-12-05T11:41:42.984Z,1.33
2022-12-05T11:44:21.025Z,1.30
2022-12-05T11:46:58.323Z,0.90
2022-12-05T11:49:38.444Z,0.90
2022-12-05T11:52:10.733Z,1.00
2022-12-05T11:57:52.270Z,0.90
2022-12-05T12:00:23.392Z,1.10
2022-12-05T12:03:09.541Z,1.00
2022-12-05T12:05:40.323Z,0.77
2022-12-05T12:08:14.009Z,1.00
2022-12-05T12:10:47.073Z,0.77
2022-12-05T12:13:25.547Z,0.80
2022-12-05T12:16:02.736Z,0.80
2022-12-05T12:18:46.411Z,1.20
2022-12-05T12:21:18.849Z,0.70
2022-12-05T12:23:56.368Z,1.10
2022-12-05T12:26:32.164Z,1.00
2022-12-05T12:29:05.339Z,1.10
2022-12-05T12:31:39.400Z,0.80
2022-12-05T12:34:17.031Z,1.00
2022-12-05T12:36:47.760Z,0.90
2022-12-05T12:39:28.359Z,0.77
2022-12-05T12:42:02.674Z,0.80
2022-12-05T12:44:46.604Z,0.70
2022-12-05T12:47:19.886Z,0.73
2022-12-05T12:49:55.626Z,0.90
2022-12-05T12:52:25.109Z,0.93
2022-12-05T12:55:04.856Z,0.90
2022-12-05T12:57:37.021Z,0.87
2022-12-05T13:00:13.488Z,0.77
2022-12-05T13:02:45.936Z,1.20
2022-12-05T13:05:21.719Z,0.90
2022-12-05T13:07:51.724Z,0.60
2022-12-05T13:10:25.900Z,0.80
2022-12-05T13:12:55.545Z,0.60
2022-12-05T13:15:30.535Z,1.00
2022-12-05T13:17:59.188Z,0.77
2022-12-05T13:20:29.901Z,1.40
2022-12-05T13:23:03.133Z,0.90
2022-12-05T13:25:36.456Z,1.10
2022-12-05T13:28:06.178Z,0.90
2022-12-05T13:30:56.305Z,1.33
2022-12-05T13:33:26.869Z,1.00
2022-12-05T13:36:17.354Z,1.20
2022-12-05T13:39:03.908Z,1.20
2022-12-05T13:41:58.635Z,1.10
2022-12-05T13:44:33.319Z,1.50
2022-12-05T13:47:07.585Z,1.30
2022-12-05T13:49:44.467Z,1.40
2022-12-05T13:52:15.136Z,1.50
2022-12-05T13:54:45.354Z,1.30
2022-12-05T13:57:31.586Z,1.40
2022-12-05T14:00:05.907Z,1.40
2022-12-05T14:02:55.905Z,1.20
2022-12-05T14:05:40.522Z,1.40
2022-12-05T14:08:27.842Z,1.20
2022-12-05T14:11:10.917Z,1.40
2022-12-05T14:13:42.647Z,1.03
2022-12-05T14:16:29.877Z,1.10
2022-12-05T14:19:05.169Z,1.10
2022-12-05T14:21:39.973Z,1.20
2022-12-05T14:24:09.901Z,1.10
2022-12-05T14:26:43.148Z,1.10
2022-12-05T14:29:20.368Z,1.00
2022-12-05T14:31:53.630Z,0.90
2022-12-05T14:34:27.680Z,1.20
2022-12-05T14:37:00.770Z,1.20
2022-12-05T14:39:33.007Z,1.20
2022-12-05T14:42:03.145Z,1.00
2022-12-05T14:44:33.529Z,1.43
2022-12-05T14:47:05.692Z,1.30
2022-12-05T14:49:53.118Z,1.00
2022-12-05T14:52:24.440Z,1.20
2022-12-05T14:54:54.581Z,1.30
2022-12-05T14:57:23.548Z,0.93
2022-12-05T14:59:53.681Z,1.20
2022-12-05T15:02:26.174Z,0.90
2022-12-05T15:04:56.335Z,0.80
2022-12-05T15:07:32.317Z,1.03
2022-12-05T15:10:02.110Z,1.20
2022-12-05T15:12:32.559Z,1.10
2022-12-05T15:15:08.761Z,1.00
2022-12-05T15:17:41.525Z,1.13
2022-12-05T15:20:15.358Z,1.10
2022-12-05T15:22:45.501Z,1.00
2022-12-05T15:25:27.451Z,1.00
2022-12-05T15:27:57.276Z,0.97
2022-12-05T15:30:26.140Z,0.90
2022-12-05T15:32:59.198Z,0.87
2022-12-05T15:35:28.952Z,0.70
2022-12-05T15:38:01.395Z,0.83
2022-12-05T15:40:37.602Z,1.03
2022-12-05T15:43:26.033Z,0.50
2022-12-05T15:46:08.338Z,1.00
2022-12-05T15:48:36.924Z,1.03
2022-12-05T15:51:05.512Z,1.00
2022-12-05T15:53:38.026Z,0.70
2022-12-05T15:56:08.125Z,0.80
2022-12-05T15:58:38.821Z,1.00
2022-12-05T16:01:10.979Z,0.70
2022-12-05T16:03:41.492Z,0.70
2022-12-05T16:06:12.941Z,1.00
2022-12-05T16:08:47.164Z,0.80
2022-12-05T16:11:16.147Z,0.70
2022-12-05T16:13:45.577Z,1.00
2022-12-05T16:16:17.558Z,0.80
2022-12-05T16:18:50.877Z,0.80
2022-12-05T16:21:38.967Z,0.83
2022-12-05T16:24:14.190Z,1.10
2022-12-05T16:26:42.726Z,0.80
2022-12-05T16:29:28.286Z,0.80
2022-12-05T16:31:57.701Z,0.80
2022-12-05T16:34:27.189Z,0.60
2022-12-05T16:36:56.853Z,0.90
2022-12-05T16:39:28.523Z,1.00
2022-12-05T16:41:57.120Z,0.90
2022-12-05T16:44:43.375Z,1.07
2022-12-05T16:47:19.905Z,0.90
2022-12-05T16:49:48.491Z,0.80
2022-12-05T16:52:17.181Z,0.90
2022-12-05T16:54:50.586Z,1.00
2022-12-05T16:57:19.294Z,0.77
2022-12-05T16:59:49.516Z,1.10
2022-12-05T17:02:19.122Z,0.87
2022-12-05T17:04:47.961Z,0.90
2022-12-05T17:07:16.457Z,1.00
2022-12-05T17:09:45.095Z,1.00
2022-12-05T17:12:17.276Z,1.10
2022-12-05T17:14:47.290Z,5.60
2022-12-05T17:17:18.129Z,1.10
2022-12-05T17:19:46.756Z,0.90
2022-12-05T17:22:16.779Z,0.90
2022-12-05T17:24:45.454Z,7.23
2022-12-05T17:27:15.542Z,3.37
2022-12-05T17:29:44.541Z,1.10
2022-12-05T17:32:12.990Z,0.90
2022-12-05T17:34:41.576Z,0.93
2022-12-05T17:37:10.109Z,0.93
2022-12-05T17:39:38.564Z,0.97
2022-12-05T17:42:07.114Z,1.10
2022-12-05T17:44:37.108Z,0.90
2022-12-05T17:47:08.131Z,1.00
2022-12-05T17:49:36.916Z,1.20
2022-12-05T17:52:22.124Z,1.07
2022-12-05T17:54:51.293Z,1.00
2022-12-05T17:57:19.961Z,0.90
2022-12-05T17:59:49.827Z,1.10
2022-12-05T18:02:20.048Z,1.20
2022-12-05T18:04:48.598Z,1.07
2022-12-05T18:07:17.097Z,0.70
2022-12-05T18:09:45.624Z,0.90
2022-12-05T18:12:14.332Z,0.90
2022-12-05T18:14:42.774Z,1.00
2022-12-05T18:17:12.591Z,0.80
2022-12-05T18:19:41.256Z,1.13
2022-12-05T18:22:09.678Z,1.10
2022-12-05T18:24:38.096Z,1.00
2022-12-05T18:27:06.840Z,1.47
2022-12-05T18:29:35.315Z,0.90
2022-12-05T18:32:03.785Z,1.20
2022-12-05T18:34:33.811Z,1.13
2022-12-05T18:37:02.461Z,1.43
2022-12-05T18:39:31.136Z,1.20
2022-12-05T18:41:59.784Z,0.93
2022-12-05T18:44:28.220Z,1.27
2022-12-05T18:46:56.649Z,0.90
2022-12-05T18:49:25.387Z,0.97
2022-12-05T18:51:55.293Z,1.10
2022-12-05T18:54:23.764Z,1.10
2022-12-05T18:56:53.037Z,0.93
2022-12-05T18:59:22.527Z,0.80
2022-12-05T19:01:51.591Z,1.30
2022-12-05T19:04:21.559Z,1.00
2022-12-05T19:06:52.702Z,0.90
2022-12-05T19:09:23.179Z,0.77
2022-12-05T19:11:52.529Z,0.60
2022-12-05T19:14:21.436Z,1.13
2022-12-05T19:16:53.755Z,0.90
2022-12-05T19:19:26.665Z,1.00
2022-12-05T19:21:55.116Z,1.00
2022-12-05T19:24:24.966Z,1.00
2022-12-05T19:26:53.536Z,1.27
2022-12-05T19:29:21.986Z,1.87
2022-12-05T19:31:50.521Z,1.20
2022-12-05T19:34:19.190Z,1.13
2022-12-05T19:36:47.997Z,1.50
2022-12-05T19:39:17.497Z,1.33
2022-12-05T19:41:47.621Z,1.70
2022-12-05T19:44:16.084Z,1.50
2022-12-05T19:46:44.855Z,1.10
2022-12-05T19:49:14.214Z,1.50
2022-12-05T19:51:42.833Z,1.70
2022-12-05T19:54:12.287Z,1.40
2022-12-05T19:56:41.155Z,1.60
2022-12-05T19:59:14.704Z,1.93
2022-12-05T20:01:43.374Z,1.30
2022-12-05T20:04:13.308Z,1.50
2022-12-05T20:06:42.685Z,1.17
2022-12-05T20:09:12.463Z,1.20
2022-12-05T20:11:41.846Z,1.60
2022-12-05T20:14:12.976Z,1.50
2022-12-05T20:16:41.903Z,1.40
2022-12-05T20:19:10.662Z,1.20
2022-12-05T20:21:40.656Z,1.53
2022-12-05T20:24:09.830Z,1.13
2022-12-05T20:26:39.278Z,1.40
2022-12-05T20:29:08.036Z,1.17
2022-12-05T20:31:41.748Z,1.37
2022-12-05T20:34:11.517Z,1.30
2022-12-05T20:36:42.517Z,1.33
2022-12-05T20:39:12.977Z,1.20
2022-12-05T20:41:41.692Z,1.33
2022-12-05T20:44:10.566Z,1.63
2022-12-05T20:46:41.688Z,1.60
2022-12-05T20:49:10.447Z,1.17
2022-12-05T20:51:42.208Z,1.20
2022-12-05T20:54:12.737Z,1.40
2022-12-05T20:56:41.240Z,1.30
2022-12-05T20:59:10.240Z,1.80
2022-12-05T21:01:40.444Z,1.70
2022-12-05T21:04:09.448Z,1.20
2022-12-05T21:06:39.016Z,1.30
2022-12-05T21:09:15.072Z,1.27
2022-12-05T21:11:43.768Z,1.40
2022-12-05T21:14:12.523Z,1.53
2022-12-05T21:16:42.633Z,1.50
2022-12-05T21:19:11.084Z,1.43
2022-12-05T21:21:39.752Z,1.40
2022-12-05T21:24:09.008Z,1.23
2022-12-05T21:26:37.533Z,1.03
2022-12-05T21:29:06.900Z,1.37
2022-12-05T21:31:37.458Z,1.60
2022-12-05T21:34:08.316Z,1.80
2022-12-05T21:36:37.896Z,1.80
2022-12-05T21:39:07.043Z,1.97
2022-12-05T21:41:35.509Z,1.50
2022-12-05T21:44:04.043Z,1.23
2022-12-05T21:46:32.774Z,1.57
2022-12-05T21:49:01.248Z,1.63
2022-12-05T21:51:31.272Z,1.50
2022-12-05T21:53:59.752Z,1.90
2022-12-05T21:56:28.584Z,1.97
2022-12-05T21:58:57.123Z,1.83
2022-12-05T22:01:26.989Z,2.43
2022-12-05T22:03:56.127Z,1.90
2022-12-05T22:06:24.921Z,2.50
2022-12-05T22:08:55.587Z,2.37
2022-12-05T22:11:24.844Z,2.40
2022-12-05T22:13:53.925Z,2.20
2022-12-05T22:16:26.457Z,2.07
2022-12-05T22:18:57.790Z,2.43
2022-12-05T22:21:26.295Z,2.17
2022-12-05T22:23:56.096Z,2.30
2022-12-05T22:26:26.021Z,2.43
2022-12-05T22:28:55.825Z,2.00
2022-12-05T22:31:25.158Z,2.30
2022-12-05T22:33:53.831Z,2.57
2022-12-05T22:36:24.406Z,2.60
2022-12-05T22:38:52.877Z,2.43
2022-12-05T22:41:23.451Z,2.43
2022-12-05T22:43:55.121Z,2.40
2022-12-05T22:46:23.686Z,2.30
2022-12-05T22:48:52.204Z,2.23
2022-12-05T22:51:21.468Z,2.40
2022-12-05T22:53:51.920Z,2.73
2022-12-05T22:56:20.823Z,2.30
2022-12-05T22:58:50.823Z,2.30
2022-12-05T23:01:20.329Z,2.30
2022-12-05T23:03:49.839Z,2.40
2022-12-05T23:06:19.260Z,2.50
2022-12-05T23:08:48.967Z,2.27
2022-12-05T23:11:18.373Z,2.70
2022-12-05T23:13:47.444Z,2.47
2022-12-05T23:16:21.363Z,2.40
2022-12-05T23:18:50.243Z,2.20
2022-12-05T23:21:19.941Z,2.30
2022-12-05T23:23:48.884Z,2.87
2022-12-05T23:26:17.830Z,2.97
2022-12-05T23:28:46.466Z,2.80
2022-12-05T23:31:15.421Z,2.73
2022-12-05T23:33:46.834Z,2.47
2022-12-05T23:36:18.469Z,2.47
2022-12-05T23:38:47.189Z,2.40
2022-12-05T23:41:16.736Z,2.17
2022-12-05T23:43:45.752Z,2.27
2022-12-05T23:46:15.206Z,2.10
2022-12-05T23:48:46.082Z,2.07
2022-12-05T23:51:15.333Z,1.50
2022-12-05T23:53:44.944Z,1.73
2022-12-05T23:56:14.698Z,1.90
2022-12-05T23:58:43.436Z,1.93
